Wetterstation-Oberesslingen
Wetterdaten: aktuell Dienstag, 21.01.2020 15:00
Datum Zeit Temperatur BodenT. -10 Temp+5cm Luftfeuchte Bod.Feuchte Luftdruck Regen Wind Richtung Richtung Sonnenschein ET Solar Taupunkt Windchill Windben
21.01.2020 15:00 3,4 C 1,7 C 2,2 C 74 % 24 cb 1040,7 hPa 0,0 l/m 2,7 km/h (1 Bft) SO 134 60 min 0,127 mm 195 W/m -0,8 C 3,4 C 6,0 km/h (2 Bft)
21.01.2020 14:00 3,3 C 1,7 C 2,8 C 74 % 24 cb 1041,1 hPa 0,0 l/m 3,3 km/h (1 Bft) W-NW 285 60 min 0,102 mm 294 W/m -0,9 C 3,3 C 6,0 km/h (2 Bft)
21.01.2020 13:05 2,3 C 1,7 C 2,2 C 77 % 24 cb 1042,0 hPa 0,0 l/m 2,7 km/h (1 Bft) S-SO 157 50 min 0,102 mm 350 W/m -1,3 C 2,3 C 6,0 km/h (2 Bft)
21.01.2020 12:10 1,1 C 1,7 C 1,7 C 81 % 24 cb 1042,7 hPa 0,0 l/m 3,5 km/h (1 Bft) O-SO 117 45 min 0,076 mm 200 W/m -1,8 C 1,1 C 7,6 km/h (2 Bft)
21.01.2020 11:15 0,7 C 1,7 C 1,7 C 84 % 24 cb 1043,1 hPa 0,0 l/m 1,1 km/h (1 Bft) O 92 35 min 0,051 mm 197 W/m -1,7 C 0,7 C 1,1 km/h (1 Bft)
21.01.2020 10:20 -0,8 C 1,7 C 0,0 C 91 % 24 cb 1043,2 hPa 0,0 l/m 1,1 km/h (1 Bft) O-NO 74 0 min 0,025 mm 128 W/m -2,1 C -0,8 C 1,1 km/h (1 Bft)
21.01.2020 09:25 -1,9 C 2,2 C -1,7 C 93 % 24 cb 1043,5 hPa 0,0 l/m 1,1 km/h (1 Bft) N-NO 17 0 min 0,000 mm 63 W/m -2,9 C -1,9 C 1,1 km/h (1 Bft)
21.01.2020 08:30 -3,5 C 2,2 C -6,7 C 94 % 24 cb 1043,2 hPa 0,0 l/m 1,1 km/h (1 Bft) N 360 0 min 0,000 mm 16 W/m -4,3 C -3,5 C 1,1 km/h (1 Bft)
21.01.2020 07:35 -3,1 C 2,2 C -7,2 C 94 % 24 cb 1043,0 hPa 0,0 l/m 1,1 km/h (1 Bft) N 360 0 min 0,000 mm 0 W/m -3,9 C -3,1 C 1,1 km/h (1 Bft)
21.01.2020 06:35 -2,3 C 2,2 C -6,1 C 93 % 24 cb 1042,9 hPa 0,0 l/m 1,1 km/h (1 Bft) NW 321 0 min 0,000 mm 0 W/m -3,3 C -2,3 C 1,1 km/h (1 Bft)
21.01.2020 05:40 -1,8 C 2,2 C -2,8 C 94 % 24 cb 1042,8 hPa 0,0 l/m 1,1 km/h (1 Bft) NW 321 0 min 0,000 mm 0 W/m -2,6 C -1,8 C 1,1 km/h (1 Bft)
21.01.2020 04:45 -2,8 C 2,2 C -3,9 C 94 % 23 cb 1043,1 hPa 0,0 l/m 1,1 km/h (1 Bft) NW 321 0 min 0,000 mm 0 W/m -3,6 C -2,8 C 1,1 km/h (1 Bft)
21.01.2020 03:50 -3,1 C 2,2 C -6,1 C 93 % 23 cb 1043,4 hPa 0,0 l/m 1,1 km/h (1 Bft) NW 321 0 min 0,000 mm 0 W/m -4,1 C -3,1 C 1,1 km/h (1 Bft)
21.01.2020 02:55 -2,8 C 2,2 C -6,7 C 93 % 23 cb 1043,8 hPa 0,0 l/m 1,1 km/h (1 Bft) NW 321 0 min 0,000 mm 0 W/m -3,8 C -2,8 C 1,1 km/h (1 Bft)
21.01.2020 02:00 -1,7 C 2,2 C -5,6 C 92 % 23 cb 1043,8 hPa 0,0 l/m 1,1 km/h (1 Bft) NW 321 0 min 0,000 mm 0 W/m -2,8 C -1,7 C 1,1 km/h (1 Bft)
21.01.2020 01:05 -1,0 C 2,2 C -4,4 C 91 % 23 cb 1044,0 hPa 0,0 l/m 1,1 km/h (1 Bft) NW 321 0 min 0,000 mm 0 W/m -2,3 C -1,0 C 1,1 km/h (1 Bft)
21.01.2020 00:10 -1,2 C 2,8 C -4,4 C 91 % 23 cb 1044,3 hPa 0,0 l/m 1,1 km/h (1 Bft) N-NW 348 0 min 0,000 mm 0 W/m -2,5 C -1,2 C 1,1 km/h (1 Bft)
20.01.2020 23:10 -0,9 C 2,8 C -5,0 C 91 % 23 cb 1044,3 hPa 0,0 l/m 1,1 km/h (1 Bft) N-NW 348 0 min 0,000 mm 0 W/m -2,2 C -0,9 C 1,1 km/h (1 Bft)
20.01.2020 22:15 0,1 C 2,8 C -4,4 C 89 % 23 cb 1044,4 hPa 0,0 l/m 1,1 km/h (1 Bft) N 355 0 min 0,000 mm 0 W/m -1,5 C 0,1 C 1,1 km/h (1 Bft)
20.01.2020 21:20 0,2 C 2,8 C -3,9 C 87 % 23 cb 1044,6 hPa 0,0 l/m 1,1 km/h (1 Bft) N 351 0 min 0,000 mm 0 W/m -1,7 C 0,2 C 1,1 km/h (1 Bft)
20.01.2020 20:25 0,1 C 2,8 C -4,4 C 88 % 23 cb 1044,9 hPa 0,0 l/m 1,1 km/h (1 Bft) N 360 0 min 0,000 mm 0 W/m -1,6 C 0,1 C 1,1 km/h (1 Bft)
20.01.2020 19:30 0,7 C 2,8 C -1,7 C 85 % 23 cb 1045,1 hPa 0,0 l/m 1,1 km/h (1 Bft) SO 124 0 min 0,000 mm 0 W/m -1,5 C 0,7 C 1,1 km/h (1 Bft)
20.01.2020 18:35 2,1 C 2,8 C -1,7 C 78 % 23 cb 1044,7 hPa 0,0 l/m 1,1 km/h (1 Bft) SO 124 0 min 0,000 mm 0 W/m -1,3 C 2,1 C 1,1 km/h (1 Bft)
20.01.2020 17:40 2,8 C 2,8 C -1,7 C 73 % 23 cb 1044,6 hPa 0,0 l/m 1,1 km/h (1 Bft) NO 47 5 min 0,001 mm 0 W/m -1,5 C 2,8 C 1,1 km/h (1 Bft)
20.01.2020 16:45 4,1 C 2,8 C 1,7 C 68 % 23 cb 1044,7 hPa 0,0 l/m 2,2 km/h (1 Bft) NO 55 5 min 0,050 mm 14 W/m -1,3 C 4,1 C 7,6 km/h (2 Bft)
20.01.2020 16:00 4,7 C 2,8 C 2,8 C 67 % 23 cb 1044,7 hPa 0,0 l/m 3,6 km/h (1 Bft) O 95 0 min 0,000 mm 35 W/m -0,9 C 4,7 C 7,6 km/h (2 Bft)
_ Min-Zeit 08:20 09:40 07:35 16:00 16:00 14:40 - 17:05 - - - - - 08:20 08:20 17:05
Minimum _ -3,6 C 1,7 C -7,2 C 67 % 23 cb 1040,7 hPa - 1,1 km/h (1 Bft) - - - - - -4,4 C -3,6 C 1,1 km/h (1 Bft)
_ Max-Zeit 16:00 16:00 16:05 03:30 05:05 19:20 16:00 11:40 - - 14:10 14:10 12:00 14:45 16:00 16:05
Maximum _ 4,7 C 2,8 C 3,3 C 94 % 24 cb 1045,1 hPa 0,0 l/m 6,0 km/h
SO (2 Bft)
- - 10 min 0,127 mm 390 W/m -0,8 C 4,7 C 12,4 km/h
N-NO (2 Bft)
Durchschnitt _ 0,1 C 2,3 C -2,2 C 85 % 23 cb 1043,7 hPa #0,0 l/m 1,7 km/h (1 Bft) NW - #4:00 h #0,381 mm 194 W/m -2,2 C 0,1 C 2,9 km/h (1 Bft)